sensor_id;sensor_type;location;lat;lon;timestamp;temperature;humidity
54431;DHT22;40342;52.998;5.862;2022-12-13T00:00:43;-2.20;99.90
54431;DHT22;40342;52.998;5.862;2022-12-13T00:03:09;-2.30;99.90
54431;DHT22;40342;52.998;5.862;2022-12-13T00:05:42;-2.30;99.90
54431;DHT22;40342;52.998;5.862;2022-12-13T00:08:08;-2.30;99.90
54431;DHT22;40342;52.998;5.862;2022-12-13T00:10:33;-2.40;99.90
54431;DHT22;40342;52.998;5.862;2022-12-13T00:12:59;-2.40;99.90
54431;DHT22;40342;52.998;5.862;2022-12-13T00:15:24;-2.40;99.90
54431;DHT22;40342;52.998;5.862;2022-12-13T00:17:50;-2.40;99.90
54431;DHT22;40342;52.998;5.862;2022-12-13T00:20:15;-2.40;99.90
54431;DHT22;40342;52.998;5.862;2022-12-13T00:22:41;-2.40;99.90
54431;DHT22;40342;52.998;5.862;2022-12-13T00:25:07;-2.50;99.90
54431;DHT22;40342;52.998;5.862;2022-12-13T00:27:32;-2.50;99.90
54431;DHT22;40342;52.998;5.862;2022-12-13T00:29:58;-2.50;99.90
54431;DHT22;40342;52.998;5.862;2022-12-13T00:32:23;-2.50;99.90
54431;DHT22;40342;52.998;5.862;2022-12-13T00:34:49;-2.50;99.90
54431;DHT22;40342;52.998;5.862;2022-12-13T00:37:14;-2.50;99.90
54431;DHT22;40342;52.998;5.862;2022-12-13T00:39:40;-2.60;99.90
54431;DHT22;40342;52.998;5.862;2022-12-13T00:42:06;-2.60;99.90
54431;DHT22;40342;52.998;5.862;2022-12-13T00:44:31;-2.60;99.90
54431;DHT22;40342;52.998;5.862;2022-12-13T00:46:57;-2.70;99.90
54431;DHT22;40342;52.998;5.862;2022-12-13T00:49:23;-2.60;99.90
54431;DHT22;40342;52.998;5.862;2022-12-13T00:51:49;-2.60;99.90
54431;DHT22;40342;52.998;5.862;2022-12-13T00:54:14;-2.70;99.90
54431;DHT22;40342;52.998;5.862;2022-12-13T00:56:40;-2.70;99.90
54431;DHT22;40342;52.998;5.862;2022-12-13T00:59:06;-2.70;99.90
54431;DHT22;40342;52.998;5.862;2022-12-13T01:01:34;-2.70;99.90
54431;DHT22;40342;52.998;5.862;2022-12-13T01:04:05;-2.70;99.90
54431;DHT22;40342;52.998;5.862;2022-12-13T01:06:35;-2.80;99.90
54431;DHT22;40342;52.998;5.862;2022-12-13T01:09:02;-2.70;99.90
54431;DHT22;40342;52.998;5.862;2022-12-13T01:11:27;-2.80;99.90
54431;DHT22;40342;52.998;5.862;2022-12-13T01:13:53;-2.70;99.90
54431;DHT22;40342;52.998;5.862;2022-12-13T01:16:18;-2.70;99.90
54431;DHT22;40342;52.998;5.862;2022-12-13T01:18:44;-2.80;99.90
54431;DHT22;40342;52.998;5.862;2022-12-13T01:21:13;-2.80;99.90
54431;DHT22;40342;52.998;5.862;2022-12-13T01:23:41;-2.80;99.90
54431;DHT22;40342;52.998;5.862;2022-12-13T01:26:09;-2.80;99.90
54431;DHT22;40342;52.998;5.862;2022-12-13T01:28:35;-2.90;99.90
54431;DHT22;40342;52.998;5.862;2022-12-13T01:31:07;-2.90;99.90
54431;DHT22;40342;52.998;5.862;2022-12-13T01:33:33;-2.90;99.90
54431;DHT22;40342;52.998;5.862;2022-12-13T01:36:00;-2.90;99.90
54431;DHT22;40342;52.998;5.862;2022-12-13T01:38:27;-2.90;99.90
54431;DHT22;40342;52.998;5.862;2022-12-13T01:40:53;-2.90;99.90
54431;DHT22;40342;52.998;5.862;2022-12-13T01:46:13;-3.00;99.90
54431;DHT22;40342;52.998;5.862;2022-12-13T01:48:52;-3.00;99.90
54431;DHT22;40342;52.998;5.862;2022-12-13T01:51:21;-3.00;99.90
54431;DHT22;40342;52.998;5.862;2022-12-13T01:53:51;-3.10;99.90
54431;DHT22;40342;52.998;5.862;2022-12-13T01:56:27;-3.10;99.90
54431;DHT22;40342;52.998;5.862;2022-12-13T01:58:54;-3.00;99.90
54431;DHT22;40342;52.998;5.862;2022-12-13T02:01:20;-3.10;99.90
54431;DHT22;40342;52.998;5.862;2022-12-13T02:03:46;-3.10;99.90
54431;DHT22;40342;52.998;5.862;2022-12-13T02:06:29;-3.20;99.90
54431;DHT22;40342;52.998;5.862;2022-12-13T02:08:57;-3.20;99.90
54431;DHT22;40342;52.998;5.862;2022-12-13T02:11:22;-3.20;99.90
54431;DHT22;40342;52.998;5.862;2022-12-13T02:13:49;-3.20;99.90
54431;DHT22;40342;52.998;5.862;2022-12-13T02:16:29;-3.20;99.90
54431;DHT22;40342;52.998;5.862;2022-12-13T02:22:20;-3.20;99.90
54431;DHT22;40342;52.998;5.862;2022-12-13T02:25:25;-3.20;99.90
54431;DHT22;40342;52.998;5.862;2022-12-13T02:28:31;-3.20;99.90
54431;DHT22;40342;52.998;5.862;2022-12-13T02:31:13;-3.20;99.90
54431;DHT22;40342;52.998;5.862;2022-12-13T02:33:54;-3.20;99.90
54431;DHT22;40342;52.998;5.862;2022-12-13T02:36:30;-3.20;99.90
54431;DHT22;40342;52.998;5.862;2022-12-13T02:39:02;-3.20;99.90
54431;DHT22;40342;52.998;5.862;2022-12-13T02:44:21;-3.30;99.90
54431;DHT22;40342;52.998;5.862;2022-12-13T02:46:54;-3.30;99.90
54431;DHT22;40342;52.998;5.862;2022-12-13T02:49:22;-3.30;99.90
54431;DHT22;40342;52.998;5.862;2022-12-13T02:51:50;-3.30;99.90
54431;DHT22;40342;52.998;5.862;2022-12-13T02:54:16;-3.30;99.90
54431;DHT22;40342;52.998;5.862;2022-12-13T02:56:51;-3.30;99.90
54431;DHT22;40342;52.998;5.862;2022-12-13T02:59:17;-3.30;99.90
54431;DHT22;40342;52.998;5.862;2022-12-13T03:01:59;-3.30;99.90
54431;DHT22;40342;52.998;5.862;2022-12-13T03:04:39;-3.20;99.90
54431;DHT22;40342;52.998;5.862;2022-12-13T03:07:56;-3.30;99.90
54431;DHT22;40342;52.998;5.862;2022-12-13T03:10:42;-3.30;99.90
54431;DHT22;40342;52.998;5.862;2022-12-13T03:13:14;-3.30;99.90
54431;DHT22;40342;52.998;5.862;2022-12-13T03:16:07;-3.30;99.90
54431;DHT22;40342;52.998;5.862;2022-12-13T03:18:34;-3.30;99.90
54431;DHT22;40342;52.998;5.862;2022-12-13T03:21:06;-3.30;99.90
54431;DHT22;40342;52.998;5.862;2022-12-13T03:23:33;-3.30;99.90
54431;DHT22;40342;52.998;5.862;2022-12-13T03:26:06;-3.30;99.90
54431;DHT22;40342;52.998;5.862;2022-12-13T03:28:33;-3.30;99.90
54431;DHT22;40342;52.998;5.862;2022-12-13T03:30:59;-3.30;99.90
54431;DHT22;40342;52.998;5.862;2022-12-13T03:33:25;-3.30;99.90
54431;DHT22;40342;52.998;5.862;2022-12-13T03:35:50;-3.30;99.90
54431;DHT22;40342;52.998;5.862;2022-12-13T03:38:17;-3.30;99.90
54431;DHT22;40342;52.998;5.862;2022-12-13T03:40:43;-3.20;99.90
54431;DHT22;40342;52.998;5.862;2022-12-13T03:43:09;-3.30;99.90
54431;DHT22;40342;52.998;5.862;2022-12-13T03:45:35;-3.30;99.90
54431;DHT22;40342;52.998;5.862;2022-12-13T03:48:00;-3.40;99.90
54431;DHT22;40342;52.998;5.862;2022-12-13T03:50:26;-3.40;99.90
54431;DHT22;40342;52.998;5.862;2022-12-13T03:52:57;-3.40;99.90
54431;DHT22;40342;52.998;5.862;2022-12-13T03:55:23;-3.50;99.90
54431;DHT22;40342;52.998;5.862;2022-12-13T03:57:48;-3.50;99.90
54431;DHT22;40342;52.998;5.862;2022-12-13T04:00:14;-3.50;99.90
54431;DHT22;40342;52.998;5.862;2022-12-13T04:02:40;-3.50;99.90
54431;DHT22;40342;52.998;5.862;2022-12-13T04:05:06;-3.50;99.90
54431;DHT22;40342;52.998;5.862;2022-12-13T04:07:31;-3.40;99.90
54431;DHT22;40342;52.998;5.862;2022-12-13T04:09:57;-3.40;99.90
54431;DHT22;40342;52.998;5.862;2022-12-13T04:12:23;-3.40;99.90
54431;DHT22;40342;52.998;5.862;2022-12-13T04:15:07;-3.30;99.90
54431;DHT22;40342;52.998;5.862;2022-12-13T04:17:33;-3.40;99.90
54431;DHT22;40342;52.998;5.862;2022-12-13T04:19:58;-3.40;99.90
54431;DHT22;40342;52.998;5.862;2022-12-13T04:22:24;-3.40;99.90
54431;DHT22;40342;52.998;5.862;2022-12-13T04:24:49;-3.40;99.90
54431;DHT22;40342;52.998;5.862;2022-12-13T04:27:15;-3.40;99.90
54431;DHT22;40342;52.998;5.862;2022-12-13T04:29:40;-3.40;99.90
54431;DHT22;40342;52.998;5.862;2022-12-13T04:32:06;-3.40;99.90
54431;DHT22;40342;52.998;5.862;2022-12-13T04:34:32;-3.40;99.90
54431;DHT22;40342;52.998;5.862;2022-12-13T04:36:58;-3.40;99.90
54431;DHT22;40342;52.998;5.862;2022-12-13T04:39:23;-3.40;99.90
54431;DHT22;40342;52.998;5.862;2022-12-13T04:41:51;-3.40;99.90
54431;DHT22;40342;52.998;5.862;2022-12-13T04:44:17;-3.40;99.90
54431;DHT22;40342;52.998;5.862;2022-12-13T04:46:42;-3.40;99.90
54431;DHT22;40342;52.998;5.862;2022-12-13T04:49:08;-3.40;99.90
54431;DHT22;40342;52.998;5.862;2022-12-13T04:51:34;-3.40;99.90
54431;DHT22;40342;52.998;5.862;2022-12-13T04:53:59;-3.40;99.90
54431;DHT22;40342;52.998;5.862;2022-12-13T04:56:25;-3.50;99.90
54431;DHT22;40342;52.998;5.862;2022-12-13T04:58:50;-3.50;99.90
54431;DHT22;40342;52.998;5.862;2022-12-13T05:01:16;-3.60;99.90
54431;DHT22;40342;52.998;5.862;2022-12-13T05:03:41;-3.60;99.90
54431;DHT22;40342;52.998;5.862;2022-12-13T05:06:09;-3.60;99.90
54431;DHT22;40342;52.998;5.862;2022-12-13T05:08:36;-3.60;99.90
54431;DHT22;40342;52.998;5.862;2022-12-13T05:11:02;-3.60;99.90
54431;DHT22;40342;52.998;5.862;2022-12-13T05:13:28;-3.60;99.90
54431;DHT22;40342;52.998;5.862;2022-12-13T05:15:59;-3.70;99.90
54431;DHT22;40342;52.998;5.862;2022-12-13T05:18:25;-3.70;99.90
54431;DHT22;40342;52.998;5.862;2022-12-13T05:20:52;-3.70;99.90
54431;DHT22;40342;52.998;5.862;2022-12-13T05:23:19;-3.70;99.90
54431;DHT22;40342;52.998;5.862;2022-12-13T05:25:44;-3.70;99.90
54431;DHT22;40342;52.998;5.862;2022-12-13T05:28:10;-3.70;99.90
54431;DHT22;40342;52.998;5.862;2022-12-13T05:30:38;-3.70;99.90
54431;DHT22;40342;52.998;5.862;2022-12-13T05:33:03;-3.70;99.90
54431;DHT22;40342;52.998;5.862;2022-12-13T05:35:29;-3.70;99.90
54431;DHT22;40342;52.998;5.862;2022-12-13T05:37:55;-3.70;99.90
54431;DHT22;40342;52.998;5.862;2022-12-13T05:40:24;-3.70;99.90
54431;DHT22;40342;52.998;5.862;2022-12-13T05:42:50;-3.70;99.90
54431;DHT22;40342;52.998;5.862;2022-12-13T05:45:17;-3.80;99.90
54431;DHT22;40342;52.998;5.862;2022-12-13T05:47:43;-3.80;99.90
54431;DHT22;40342;52.998;5.862;2022-12-13T05:50:10;-3.80;99.90
54431;DHT22;40342;52.998;5.862;2022-12-13T05:52:36;-3.80;99.90
54431;DHT22;40342;52.998;5.862;2022-12-13T05:55:01;-3.80;99.90
54431;DHT22;40342;52.998;5.862;2022-12-13T05:57:28;-3.80;99.90
54431;DHT22;40342;52.998;5.862;2022-12-13T05:59:54;-3.90;99.90
54431;DHT22;40342;52.998;5.862;2022-12-13T06:02:20;-3.90;99.90
54431;DHT22;40342;52.998;5.862;2022-12-13T06:04:46;-3.90;99.90
54431;DHT22;40342;52.998;5.862;2022-12-13T06:07:12;-3.90;99.90
54431;DHT22;40342;52.998;5.862;2022-12-13T06:09:38;-3.90;99.90
54431;DHT22;40342;52.998;5.862;2022-12-13T06:12:04;-3.90;99.90
54431;DHT22;40342;52.998;5.862;2022-12-13T06:14:30;-3.80;99.90
54431;DHT22;40342;52.998;5.862;2022-12-13T06:16:56;-3.80;99.90
54431;DHT22;40342;52.998;5.862;2022-12-13T06:19:22;-3.90;99.90
54431;DHT22;40342;52.998;5.862;2022-12-13T06:21:49;-3.90;99.90
54431;DHT22;40342;52.998;5.862;2022-12-13T06:24:18;-3.80;99.90
54431;DHT22;40342;52.998;5.862;2022-12-13T06:26:44;-3.80;99.90
54431;DHT22;40342;52.998;5.862;2022-12-13T06:29:10;-3.80;99.90
54431;DHT22;40342;52.998;5.862;2022-12-13T06:31:35;-3.80;99.90
54431;DHT22;40342;52.998;5.862;2022-12-13T06:34:04;-3.80;99.90
54431;DHT22;40342;52.998;5.862;2022-12-13T06:36:30;-3.90;99.90
54431;DHT22;40342;52.998;5.862;2022-12-13T06:38:55;-3.80;99.90
54431;DHT22;40342;52.998;5.862;2022-12-13T06:41:21;-3.80;99.90
54431;DHT22;40342;52.998;5.862;2022-12-13T06:43:47;-3.60;99.90
54431;DHT22;40342;52.998;5.862;2022-12-13T06:46:14;-3.80;99.90
54431;DHT22;40342;52.998;5.862;2022-12-13T06:48:39;-3.80;99.90
54431;DHT22;40342;52.998;5.862;2022-12-13T06:51:06;-3.80;99.90
54431;DHT22;40342;52.998;5.862;2022-12-13T06:53:34;-3.80;99.90
54431;DHT22;40342;52.998;5.862;2022-12-13T06:56:05;-3.90;99.90
54431;DHT22;40342;52.998;5.862;2022-12-13T06:58:32;-3.90;99.90
54431;DHT22;40342;52.998;5.862;2022-12-13T07:01:17;-3.90;99.90
54431;DHT22;40342;52.998;5.862;2022-12-13T07:03:43;-3.90;99.90
54431;DHT22;40342;52.998;5.862;2022-12-13T07:06:20;-3.90;99.90
54431;DHT22;40342;52.998;5.862;2022-12-13T07:08:51;-3.90;99.90
54431;DHT22;40342;52.998;5.862;2022-12-13T07:11:19;-3.90;99.90
54431;DHT22;40342;52.998;5.862;2022-12-13T07:13:45;-3.90;99.90
54431;DHT22;40342;52.998;5.862;2022-12-13T07:16:11;-4.00;99.90
54431;DHT22;40342;52.998;5.862;2022-12-13T07:18:37;-3.90;99.90
54431;DHT22;40342;52.998;5.862;2022-12-13T07:21:07;-3.90;99.90
54431;DHT22;40342;52.998;5.862;2022-12-13T07:23:34;-3.90;99.90
54431;DHT22;40342;52.998;5.862;2022-12-13T07:26:00;-3.90;99.90
54431;DHT22;40342;52.998;5.862;2022-12-13T07:28:27;-4.00;99.90
54431;DHT22;40342;52.998;5.862;2022-12-13T07:30:52;-4.00;99.90
54431;DHT22;40342;52.998;5.862;2022-12-13T07:33:18;-4.00;99.90
54431;DHT22;40342;52.998;5.862;2022-12-13T07:35:43;-4.00;99.90
54431;DHT22;40342;52.998;5.862;2022-12-13T07:38:10;-4.00;99.90
54431;DHT22;40342;52.998;5.862;2022-12-13T07:40:37;-4.00;99.90
54431;DHT22;40342;52.998;5.862;2022-12-13T07:43:03;-4.00;99.90
54431;DHT22;40342;52.998;5.862;2022-12-13T07:45:29;-3.90;99.90
54431;DHT22;40342;52.998;5.862;2022-12-13T07:47:55;-4.00;99.90
54431;DHT22;40342;52.998;5.862;2022-12-13T07:50:21;-4.00;99.90
54431;DHT22;40342;52.998;5.862;2022-12-13T07:52:47;-3.90;99.90
54431;DHT22;40342;52.998;5.862;2022-12-13T07:55:14;-4.00;99.90
54431;DHT22;40342;52.998;5.862;2022-12-13T07:57:40;-3.90;99.90
54431;DHT22;40342;52.998;5.862;2022-12-13T08:00:06;-4.00;99.90
54431;DHT22;40342;52.998;5.862;2022-12-13T08:02:31;-4.00;99.90
54431;DHT22;40342;52.998;5.862;2022-12-13T08:04:57;-4.00;99.90
54431;DHT22;40342;52.998;5.862;2022-12-13T08:07:23;-4.00;99.90
54431;DHT22;40342;52.998;5.862;2022-12-13T08:09:48;-4.00;99.90
54431;DHT22;40342;52.998;5.862;2022-12-13T08:12:14;-4.00;99.90
54431;DHT22;40342;52.998;5.862;2022-12-13T08:14:39;-4.00;99.90
54431;DHT22;40342;52.998;5.862;2022-12-13T08:17:05;-4.10;99.90
54431;DHT22;40342;52.998;5.862;2022-12-13T08:19:30;-4.10;99.90
54431;DHT22;40342;52.998;5.862;2022-12-13T08:21:56;-4.20;99.90
54431;DHT22;40342;52.998;5.862;2022-12-13T08:24:23;-4.20;99.90
54431;DHT22;40342;52.998;5.862;2022-12-13T08:26:49;-4.20;99.90
54431;DHT22;40342;52.998;5.862;2022-12-13T08:29:15;-4.30;99.90
54431;DHT22;40342;52.998;5.862;2022-12-13T08:31:40;-4.30;99.90
54431;DHT22;40342;52.998;5.862;2022-12-13T08:34:06;-4.40;99.90
54431;DHT22;40342;52.998;5.862;2022-12-13T08:36:31;-4.40;99.90
54431;DHT22;40342;52.998;5.862;2022-12-13T08:38:57;-4.30;99.90
54431;DHT22;40342;52.998;5.862;2022-12-13T08:41:27;-4.40;99.90
54431;DHT22;40342;52.998;5.862;2022-12-13T08:43:52;-4.40;99.90
54431;DHT22;40342;52.998;5.862;2022-12-13T08:46:18;-4.40;99.90
54431;DHT22;40342;52.998;5.862;2022-12-13T08:48:43;-4.40;99.90
54431;DHT22;40342;52.998;5.862;2022-12-13T08:51:11;-4.40;99.90
54431;DHT22;40342;52.998;5.862;2022-12-13T08:53:37;-4.30;99.90
54431;DHT22;40342;52.998;5.862;2022-12-13T08:56:06;-4.20;99.90
54431;DHT22;40342;52.998;5.862;2022-12-13T08:58:32;-4.20;99.90
54431;DHT22;40342;52.998;5.862;2022-12-13T09:00:58;-4.20;99.90
54431;DHT22;40342;52.998;5.862;2022-12-13T09:03:24;-4.10;99.90
54431;DHT22;40342;52.998;5.862;2022-12-13T09:05:49;-4.10;99.90
54431;DHT22;40342;52.998;5.862;2022-12-13T09:08:16;-4.00;99.90
54431;DHT22;40342;52.998;5.862;2022-12-13T09:10:41;-4.00;99.90
54431;DHT22;40342;52.998;5.862;2022-12-13T09:13:07;-3.90;99.90
54431;DHT22;40342;52.998;5.862;2022-12-13T09:15:32;-3.90;99.90
54431;DHT22;40342;52.998;5.862;2022-12-13T09:17:58;-3.80;99.90
54431;DHT22;40342;52.998;5.862;2022-12-13T09:20:24;-3.80;99.90
54431;DHT22;40342;52.998;5.862;2022-12-13T09:22:50;-3.70;99.90
54431;DHT22;40342;52.998;5.862;2022-12-13T09:25:16;-3.60;99.90
54431;DHT22;40342;52.998;5.862;2022-12-13T09:27:42;-3.50;99.90
54431;DHT22;40342;52.998;5.862;2022-12-13T09:30:09;-3.50;99.90
54431;DHT22;40342;52.998;5.862;2022-12-13T09:32:39;-3.50;99.90
54431;DHT22;40342;52.998;5.862;2022-12-13T09:35:06;-3.40;99.90
54431;DHT22;40342;52.998;5.862;2022-12-13T09:37:31;-3.30;99.90
54431;DHT22;40342;52.998;5.862;2022-12-13T09:39:57;-3.10;99.90
54431;DHT22;40342;52.998;5.862;2022-12-13T09:42:26;-2.90;99.90
54431;DHT22;40342;52.998;5.862;2022-12-13T09:44:55;-2.60;99.90
54431;DHT22;40342;52.998;5.862;2022-12-13T09:47:38;-2.30;99.90
54431;DHT22;40342;52.998;5.862;2022-12-13T09:50:07;-2.00;99.90
54431;DHT22;40342;52.998;5.862;2022-12-13T09:52:37;-1.80;99.90
54431;DHT22;40342;52.998;5.862;2022-12-13T09:55:20;-1.60;99.90
54431;DHT22;40342;52.998;5.862;2022-12-13T09:57:47;-1.40;99.90
54431;DHT22;40342;52.998;5.862;2022-12-13T10:00:16;-1.20;99.90
54431;DHT22;40342;52.998;5.862;2022-12-13T10:02:50;-1.00;99.90
54431;DHT22;40342;52.998;5.862;2022-12-13T10:05:35;-0.80;99.90
54431;DHT22;40342;52.998;5.862;2022-12-13T10:08:12;-0.70;99.90
54431;DHT22;40342;52.998;5.862;2022-12-13T10:10:39;-0.50;99.90
54431;DHT22;40342;52.998;5.862;2022-12-13T10:13:37;-0.40;99.90
54431;DHT22;40342;52.998;5.862;2022-12-13T10:16:08;-0.40;99.90
54431;DHT22;40342;52.998;5.862;2022-12-13T10:18:39;-0.30;99.90
54431;DHT22;40342;52.998;5.862;2022-12-13T10:21:38;-0.30;99.90
54431;DHT22;40342;52.998;5.862;2022-12-13T10:24:17;-0.30;99.90
54431;DHT22;40342;52.998;5.862;2022-12-13T10:26:43;-0.20;99.90
54431;DHT22;40342;52.998;5.862;2022-12-13T10:29:09;-0.20;99.90
54431;DHT22;40342;52.998;5.862;2022-12-13T10:31:40;-0.10;99.90
54431;DHT22;40342;52.998;5.862;2022-12-13T10:34:24;0.00;99.90
54431;DHT22;40342;52.998;5.862;2022-12-13T10:36:51;0.00;99.90
54431;DHT22;40342;52.998;5.862;2022-12-13T10:39:38;0.10;99.90
54431;DHT22;40342;52.998;5.862;2022-12-13T10:42:12;0.10;99.90
54431;DHT22;40342;52.998;5.862;2022-12-13T10:44:39;0.10;99.90
54431;DHT22;40342;52.998;5.862;2022-12-13T10:47:15;0.10;99.90
54431;DHT22;40342;52.998;5.862;2022-12-13T10:49:56;0.20;99.90
54431;DHT22;40342;52.998;5.862;2022-12-13T10:52:29;0.20;99.90
54431;DHT22;40342;52.998;5.862;2022-12-13T10:54:57;0.30;99.90
54431;DHT22;40342;52.998;5.862;2022-12-13T10:57:23;0.30;99.90
54431;DHT22;40342;52.998;5.862;2022-12-13T10:59:50;0.40;99.90
54431;DHT22;40342;52.998;5.862;2022-12-13T11:04:54;0.50;99.90
54431;DHT22;40342;52.998;5.862;2022-12-13T11:07:33;0.60;99.90
54431;DHT22;40342;52.998;5.862;2022-12-13T11:10:19;0.60;99.90
54431;DHT22;40342;52.998;5.862;2022-12-13T11:12:46;0.60;99.90
54431;DHT22;40342;52.998;5.862;2022-12-13T11:15:21;0.60;99.90
54431;DHT22;40342;52.998;5.862;2022-12-13T11:17:57;0.70;99.90
54431;DHT22;40342;52.998;5.862;2022-12-13T11:20:25;0.70;99.90
54431;DHT22;40342;52.998;5.862;2022-12-13T11:25:39;0.80;99.90
54431;DHT22;40342;52.998;5.862;2022-12-13T11:33:41;1.00;99.90
54431;DHT22;40342;52.998;5.862;2022-12-13T11:36:28;1.00;99.90
54431;DHT22;40342;52.998;5.862;2022-12-13T11:39:05;1.10;99.90
54431;DHT22;40342;52.998;5.862;2022-12-13T11:41:38;1.10;99.90
54431;DHT22;40342;52.998;5.862;2022-12-13T11:44:14;1.20;99.90
54431;DHT22;40342;52.998;5.862;2022-12-13T11:46:45;1.20;99.90
54431;DHT22;40342;52.998;5.862;2022-12-13T11:49:15;1.20;99.90
54431;DHT22;40342;52.998;5.862;2022-12-13T11:51:58;1.20;99.90
54431;DHT22;40342;52.998;5.862;2022-12-13T11:55:03;1.30;99.90
54431;DHT22;40342;52.998;5.862;2022-12-13T12:00:29;1.40;99.90
54431;DHT22;40342;52.998;5.862;2022-12-13T12:03:05;1.40;99.90
54431;DHT22;40342;52.998;5.862;2022-12-13T12:05:36;1.50;99.90
54431;DHT22;40342;52.998;5.862;2022-12-13T12:08:14;1.50;99.90
54431;DHT22;40342;52.998;5.862;2022-12-13T12:10:43;1.60;99.90
54431;DHT22;40342;52.998;5.862;2022-12-13T12:13:24;1.50;99.90
54431;DHT22;40342;52.998;5.862;2022-12-13T12:16:05;1.60;99.90
54431;DHT22;40342;52.998;5.862;2022-12-13T12:18:32;1.60;99.90
54431;DHT22;40342;52.998;5.862;2022-12-13T12:21:25;1.60;99.90
54431;DHT22;40342;52.998;5.862;2022-12-13T12:26:50;1.80;99.90
54431;DHT22;40342;52.998;5.862;2022-12-13T12:32:21;1.90;99.90
54431;DHT22;40342;52.998;5.862;2022-12-13T12:43:36;2.20;99.90
54431;DHT22;40342;52.998;5.862;2022-12-13T12:48:58;2.30;99.90
54431;DHT22;40342;52.998;5.862;2022-12-13T12:51:44;2.30;99.90
54431;DHT22;40342;52.998;5.862;2022-12-13T12:54:25;2.30;99.90
54431;DHT22;40342;52.998;5.862;2022-12-13T12:59:58;2.40;99.90
54431;DHT22;40342;52.998;5.862;2022-12-13T13:08:43;2.50;99.90
54431;DHT22;40342;52.998;5.862;2022-12-13T13:10:49;2.50;99.90
54431;DHT22;40342;52.998;5.862;2022-12-13T13:13:33;2.50;99.90
54431;DHT22;40342;52.998;5.862;2022-12-13T13:15:59;2.50;99.90
54431;DHT22;40342;52.998;5.862;2022-12-13T13:18:44;2.50;99.90
54431;DHT22;40342;52.998;5.862;2022-12-13T13:24:14;2.50;99.90
54431;DHT22;40342;52.998;5.862;2022-12-13T13:34:48;2.40;99.90
54431;DHT22;40342;52.998;5.862;2022-12-13T13:45:28;2.30;99.90
54431;DHT22;40342;52.998;5.862;2022-12-13T13:47:57;2.30;99.90
54431;DHT22;40342;52.998;5.862;2022-12-13T13:51:05;2.30;99.90
54431;DHT22;40342;52.998;5.862;2022-12-13T13:56:10;2.40;99.90
54431;DHT22;40342;52.998;5.862;2022-12-13T14:07:35;2.10;99.90
54431;DHT22;40342;52.998;5.862;2022-12-13T14:10:18;2.00;99.90
54431;DHT22;40342;52.998;5.862;2022-12-13T14:21:20;1.70;99.90
54431;DHT22;40342;52.998;5.862;2022-12-13T14:24:01;1.60;99.90
54431;DHT22;40342;52.998;5.862;2022-12-13T14:26:52;1.50;99.90
54431;DHT22;40342;52.998;5.862;2022-12-13T14:29:30;1.40;99.90
54431;DHT22;40342;52.998;5.862;2022-12-13T14:31:57;1.30;99.90
54431;DHT22;40342;52.998;5.862;2022-12-13T14:34:28;1.20;99.90
54431;DHT22;40342;52.998;5.862;2022-12-13T14:36:56;1.10;99.90
54431;DHT22;40342;52.998;5.862;2022-12-13T14:39:22;1.00;99.90
54431;DHT22;40342;52.998;5.862;2022-12-13T14:41:54;1.00;99.90
54431;DHT22;40342;52.998;5.862;2022-12-13T14:44:23;0.90;99.90
54431;DHT22;40342;52.998;5.862;2022-12-13T14:49:16;0.80;99.90
54431;DHT22;40342;52.998;5.862;2022-12-13T14:51:42;0.70;99.90
54431;DHT22;40342;52.998;5.862;2022-12-13T14:54:17;0.70;99.90
54431;DHT22;40342;52.998;5.862;2022-12-13T14:56:59;0.60;99.90
54431;DHT22;40342;52.998;5.862;2022-12-13T14:59:26;0.50;99.90
54431;DHT22;40342;52.998;5.862;2022-12-13T15:01:58;0.50;99.90
54431;DHT22;40342;52.998;5.862;2022-12-13T15:04:32;0.40;99.90
54431;DHT22;40342;52.998;5.862;2022-12-13T15:07:19;0.40;99.90
54431;DHT22;40342;52.998;5.862;2022-12-13T15:09:51;0.30;99.90
54431;DHT22;40342;52.998;5.862;2022-12-13T15:12:18;0.20;99.90
54431;DHT22;40342;52.998;5.862;2022-12-13T15:14:47;0.20;99.90
54431;DHT22;40342;52.998;5.862;2022-12-13T15:17:27;0.10;99.90
54431;DHT22;40342;52.998;5.862;2022-12-13T15:19:53;0.10;99.90
54431;DHT22;40342;52.998;5.862;2022-12-13T15:22:19;0.00;99.90
54431;DHT22;40342;52.998;5.862;2022-12-13T15:24:44;-0.10;99.90
54431;DHT22;40342;52.998;5.862;2022-12-13T15:27:16;-0.10;99.90
54431;DHT22;40342;52.998;5.862;2022-12-13T15:29:43;-0.20;99.90
54431;DHT22;40342;52.998;5.862;2022-12-13T15:32:13;-0.20;99.90
54431;DHT22;40342;52.998;5.862;2022-12-13T15:34:41;-0.30;99.90
54431;DHT22;40342;52.998;5.862;2022-12-13T15:37:17;-0.30;99.90
54431;DHT22;40342;52.998;5.862;2022-12-13T15:39:45;-0.40;99.90
54431;DHT22;40342;52.998;5.862;2022-12-13T15:42:18;-0.40;99.90
54431;DHT22;40342;52.998;5.862;2022-12-13T15:44:53;-0.50;99.90
54431;DHT22;40342;52.998;5.862;2022-12-13T15:47:21;-0.50;99.90
54431;DHT22;40342;52.998;5.862;2022-12-13T15:49:51;-0.60;99.90
54431;DHT22;40342;52.998;5.862;2022-12-13T15:54:58;-0.70;99.90
54431;DHT22;40342;52.998;5.862;2022-12-13T15:57:28;-0.70;99.90
54431;DHT22;40342;52.998;5.862;2022-12-13T16:02:31;-0.70;99.90
54431;DHT22;40342;52.998;5.862;2022-12-13T16:05:08;-0.70;99.90
54431;DHT22;40342;52.998;5.862;2022-12-13T16:07:35;-0.80;99.90
54431;DHT22;40342;52.998;5.862;2022-12-13T16:10:03;-0.80;99.90
54431;DHT22;40342;52.998;5.862;2022-12-13T16:12:43;-0.70;99.90
54431;DHT22;40342;52.998;5.862;2022-12-13T16:15:19;-0.80;99.90
54431;DHT22;40342;52.998;5.862;2022-12-13T16:17:49;-0.80;99.90
54431;DHT22;40342;52.998;5.862;2022-12-13T16:20:16;-0.80;99.90
54431;DHT22;40342;52.998;5.862;2022-12-13T16:22:42;-0.80;99.90
54431;DHT22;40342;52.998;5.862;2022-12-13T16:25:11;-0.80;99.90
54431;DHT22;40342;52.998;5.862;2022-12-13T16:27:38;-0.80;99.90
54431;DHT22;40342;52.998;5.862;2022-12-13T16:30:21;-0.80;99.90
54431;DHT22;40342;52.998;5.862;2022-12-13T16:32:47;-0.80;99.90
54431;DHT22;40342;52.998;5.862;2022-12-13T16:35:14;-0.80;99.90
54431;DHT22;40342;52.998;5.862;2022-12-13T16:37:39;-0.80;99.90
54431;DHT22;40342;52.998;5.862;2022-12-13T16:40:25;-0.90;99.90
54431;DHT22;40342;52.998;5.862;2022-12-13T16:42:59;-0.90;99.90
54431;DHT22;40342;52.998;5.862;2022-12-13T16:45:37;-1.00;99.90
54431;DHT22;40342;52.998;5.862;2022-12-13T16:48:04;-1.00;99.90
54431;DHT22;40342;52.998;5.862;2022-12-13T16:50:31;-1.00;99.90
54431;DHT22;40342;52.998;5.862;2022-12-13T16:52:57;-1.00;99.90
54431;DHT22;40342;52.998;5.862;2022-12-13T16:55:22;-1.00;99.90
54431;DHT22;40342;52.998;5.862;2022-12-13T16:57:55;-1.00;99.90
54431;DHT22;40342;52.998;5.862;2022-12-13T17:00:21;-1.10;99.90
54431;DHT22;40342;52.998;5.862;2022-12-13T17:02:47;-1.10;99.90
54431;DHT22;40342;52.998;5.862;2022-12-13T17:05:13;-1.10;99.90
54431;DHT22;40342;52.998;5.862;2022-12-13T17:07:38;-1.10;99.90
54431;DHT22;40342;52.998;5.862;2022-12-13T17:10:04;-1.20;99.90
54431;DHT22;40342;52.998;5.862;2022-12-13T17:12:30;-1.20;99.90
54431;DHT22;40342;52.998;5.862;2022-12-13T17:14:56;-1.20;99.90
54431;DHT22;40342;52.998;5.862;2022-12-13T17:17:21;-1.20;99.90
54431;DHT22;40342;52.998;5.862;2022-12-13T17:19:47;-1.20;99.90
54431;DHT22;40342;52.998;5.862;2022-12-13T17:22:12;-1.30;99.90
54431;DHT22;40342;52.998;5.862;2022-12-13T17:24:38;-1.30;99.90
54431;DHT22;40342;52.998;5.862;2022-12-13T17:27:04;-1.30;99.90